Time;durP1;ratioP1;P1;durP2;ratioP2;P2;SDS_P1;SDS_P2;PMS_P1;PMS_P2;Temp;Humidity;BMP_temperature;BMP_pressure;BME280_temperature;BME280_humidity;BME280_pressure;Samples;Min_cycle;Max_cycle;Signal;HPM_P1;HPM_P2
2023/09/22 00:00:14;;;;;;;476.38;430.08;;;;;;;22.92;72.50;99528.38;345060;28;920;-76
2023/09/22 00:00:24;;;;;;;474.18;427.84;;;;;;;22.91;72.45;99526.69;340793;29;877;-76
2023/09/22 00:00:34;;;;;;;474.23;427.87;;;;;;;22.91;72.64;99526.69;339378;29;1229;-76
2023/09/22 00:00:45;;;;;;;473.83;427.40;;;;;;;22.91;72.50;99532.88;342626;28;1281;-76
2023/09/22 00:00:57;;;;;;;476.08;429.65;;;;;;;22.91;72.15;99526.69;343561;28;2207;-76
2023/09/22 00:01:08;;;;;;;475.67;429.23;;;;;;;22.90;72.54;99525.84;340181;28;4519;-76
2023/09/22 00:01:20;;;;;;;479.48;433.02;;;;;;;22.90;72.59;99525.84;344539;28;1239;-76
2023/09/22 00:01:30;;;;;;;475.85;429.35;;;;;;;22.87;72.76;99526.97;344512;28;3199;-76
2023/09/22 00:01:41;;;;;;;472.53;426.07;;;;;;;22.87;72.76;99532.31;341881;28;1171;-76
2023/09/22 00:01:52;;;;;;;469.08;422.75;;;;;;;22.86;72.65;99519.97;339589;29;1304;-76
2023/09/22 00:02:05;;;;;;;474.65;428.15;;;;;;;22.86;72.45;99524.44;341539;28;1285;-76
2023/09/22 00:02:16;;;;;;;488.33;441.65;;;;;;;22.86;72.50;99530.63;340868;28;1468;-76
2023/09/22 00:02:26;;;;;;;489.20;442.50;;;;;;;22.87;72.54;99534.16;337257;28;1408;-76
2023/09/22 00:02:37;;;;;;;478.83;432.33;;;;;;;22.86;72.28;99533.31;337974;29;1062;-76
2023/09/22 00:02:48;;;;;;;480.75;434.33;;;;;;;22.87;72.15;99526.13;337055;29;1612;-77
2023/09/22 00:02:58;;;;;;;476.13;429.77;;;;;;;22.87;72.54;99531.47;335948;29;1911;-77
2023/09/22 00:03:10;;;;;;;481.25;434.85;;;;;;;22.87;72.20;99526.97;336744;29;815;-77
2023/09/22 00:03:21;;;;;;;476.95;430.48;;;;;;;22.87;72.17;99526.97;337978;29;1354;-77
2023/09/22 00:03:31;;;;;;;475.37;428.83;;;;;;;22.87;72.20;99532.31;340259;29;1234;-77
2023/09/22 00:03:42;;;;;;;479.90;433.23;;;;;;;22.87;72.29;99526.97;338879;29;1226;-77
2023/09/22 00:03:52;;;;;;;478.13;431.60;;;;;;;22.87;72.55;99532.31;336647;29;1331;-76
2023/09/22 00:04:03;;;;;;;482.60;435.95;;;;;;;22.88;72.52;99528.66;337457;29;1544;-76
2023/09/22 00:04:13;;;;;;;485.63;439.00;;;;;;;22.88;72.61;99534.00;337777;29;1723;-77
2023/09/22 00:04:24;;;;;;;480.80;434.20;;;;;;;22.88;72.64;99527.81;332690;29;1247;-77
2023/09/22 00:04:35;;;;;;;476.80;430.23;;;;;;;22.88;72.35;99523.31;332398;29;1974;-77
2023/09/22 00:04:45;;;;;;;473.17;426.75;;;;;;;22.88;72.64;99523.31;330607;29;1654;-77
2023/09/22 00:04:56;;;;;;;477.97;431.57;;;;;;;22.88;72.32;99531.34;329863;29;2085;-77
2023/09/22 00:05:07;;;;;;;480.50;434.07;;;;;;;22.87;72.21;99536.81;325573;30;1318;-77
2023/09/22 00:05:17;;;;;;;483.80;437.35;;;;;;;22.88;72.33;99527.81;326164;30;1844;-77
2023/09/22 00:05:27;;;;;;;484.10;437.58;;;;;;;22.87;72.46;99528.81;329077;29;1178;-77
2023/09/22 00:05:39;;;;;;;484.43;437.87;;;;;;;22.87;72.40;99524.31;333088;29;867;-77
2023/09/22 00:05:52;;;;;;;482.88;436.33;;;;;;;22.87;72.25;99535.00;327829;30;1202;-76
2023/09/22 00:06:02;;;;;;;485.60;438.90;;;;;;;22.87;72.53;99532.31;331684;29;1967;-76
2023/09/22 00:06:12;;;;;;;487.73;440.85;;;;;;;22.89;72.37;99540.19;329762;29;2628;-76
2023/09/22 00:06:23;;;;;;;490.43;443.50;;;;;;;22.89;71.99;99535.69;330557;29;771;-76
2023/09/22 00:06:34;;;;;;;485.17;438.38;;;;;;;22.89;72.25;99530.34;331028;29;2234;-76
2023/09/22 00:06:44;;;;;;;478.58;432.00;;;;;;;22.88;72.10;99533.16;329394;29;2573;-77
2023/09/22 00:06:55;;;;;;;472.13;425.83;;;;;;;22.87;72.31;99536.81;326171;30;2180;-77
2023/09/22 00:07:06;;;;;;;479.55;433.10;;;;;;;22.85;72.54;99531.63;324415;30;1328;-76
2023/09/22 00:07:16;;;;;;;482.25;435.67;;;;;;;22.85;72.16;99536.94;322912;30;2490;-76
2023/09/22 00:07:27;;;;;;;488.10;441.43;;;;;;;22.85;72.09;99539.63;320898;30;1809;-76
2023/09/22 00:07:37;;;;;;;482.33;435.80;;;;;;;22.86;72.66;99535.97;323300;30;899;-76
2023/09/22 00:07:48;;;;;;;479.93;433.27;;;;;;;22.85;72.28;99536.94;325099;30;2006;-76
2023/09/22 00:07:58;;;;;;;470.88;424.38;;;;;;;22.86;72.39;99541.31;322638;30;2667;-76
2023/09/22 00:08:09;;;;;;;479.53;432.83;;;;;;;22.85;72.32;99534.28;324249;30;1375;-76
2023/09/22 00:08:19;;;;;;;483.02;436.45;;;;;;;22.84;72.49;99537.94;322685;30;2672;-76
2023/09/22 00:08:30;;;;;;;481.80;435.10;;;;;;;22.85;72.59;99538.78;322472;30;2924;-76
2023/09/22 00:08:40;;;;;;;480.20;433.58;;;;;;;22.84;72.62;99537.94;321181;30;3069;-76
2023/09/22 00:08:50;;;;;;;479.27;432.53;;;;;;;22.83;72.55;99536.25;317269;31;1210;-76
2023/09/22 00:09:02;;;;;;;486.63;439.85;;;;;;;22.82;72.80;99539.91;319507;30;3928;-76
2023/09/22 00:09:13;;;;;;;485.95;439.13;;;;;;;22.82;72.47;99542.56;316439;30;3147;-77
2023/09/22 00:09:23;;;;;;;491.70;444.77;;;;;;;22.81;72.79;99538.22;314649;31;1370;-77
2023/09/22 00:09:34;;;;;;;483.33;436.60;;;;;;;22.82;72.85;99539.91;314460;31;3024;-77
2023/09/22 00:09:44;;;;;;;481.33;434.77;;;;;;;22.81;72.61;99543.56;315486;30;2360;-77
2023/09/22 00:09:55;;;;;;;487.77;441.13;;;;;;;22.82;72.71;99539.91;317115;31;2018;-77
2023/09/22 00:10:07;;;;;;;495.90;449.00;;;;;;;22.82;72.72;99545.25;314887;31;2286;-77
2023/09/22 00:10:18;;;;;;;495.38;448.35;;;;;;;22.82;72.64;99539.91;312424;31;5146;-77
2023/09/22 00:10:28;;;;;;;491.03;444.03;;;;;;;22.82;72.53;99545.25;312119;31;3911;-77
2023/09/22 00:10:38;;;;;;;495.95;448.85;;;;;;;22.82;72.61;99539.91;310563;31;804;-77
2023/09/22 00:10:49;;;;;;;498.03;450.77;;;;;;;22.83;72.74;99538.09;310520;31;4217;-77
2023/09/22 00:10:59;;;;;;;489.53;442.33;;;;;;;22.81;72.55;99543.56;309106;31;4361;-77
2023/09/22 00:11:10;;;;;;;485.95;439.02;;;;;;;22.82;72.89;99541.72;305868;32;3382;-77
2023/09/22 00:11:21;;;;;;;485.85;439.13;;;;;;;22.80;72.84;99549.88;303654;32;1120;-77
2023/09/22 00:11:31;;;;;;;497.30;450.37;;;;;;;22.80;73.02;99543.69;304384;32;4074;-77
2023/09/22 00:11:41;;;;;;;493.70;446.80;;;;;;;22.81;72.98;99550.72;303865;32;3926;-77
2023/09/22 00:11:52;;;;;;;491.00;444.00;;;;;;;22.79;73.12;99545.53;304107;32;1181;-77
2023/09/22 00:12:02;;;;;;;480.77;434.00;;;;;;;22.78;72.90;99549.19;301437;32;3529;-76
2023/09/22 00:12:13;;;;;;;478.73;432.10;;;;;;;22.79;73.07;99547.34;300661;32;2703;-76
2023/09/22 00:12:23;;;;;;;487.33;440.65;;;;;;;22.79;72.85;99548.19;301078;32;879;-76
2023/09/22 00:12:34;;;;;;;495.63;448.73;;;;;;;22.79;73.22;99550.88;301409;32;4457;-76
2023/09/22 00:12:45;;;;;;;492.40;445.48;;;;;;;22.77;72.63;99546.63;299477;32;6160;-76
2023/09/22 00:12:55;;;;;;;481.08;434.33;;;;;;;22.76;73.24;99551.13;298814;32;6217;-76
2023/09/22 00:13:05;;;;;;;482.83;436.07;;;;;;;22.76;73.48;99551.13;296340;33;1162;-77
2023/09/22 00:13:16;;;;;;;486.75;440.00;;;;;;;22.76;73.27;99553.78;291623;33;7027;-76
2023/09/22 00:13:27;;;;;;;491.75;445.00;;;;;;;22.76;73.01;99553.78;289260;33;7032;-76
2023/09/22 00:13:37;;;;;;;487.73;441.03;;;;;;;22.75;73.04;99546.75;294012;33;796;-76
2023/09/22 00:13:48;;;;;;;485.93;439.33;;;;;;;22.75;73.40;99549.44;293576;33;5588;-76
2023/09/22 00:13:59;;;;;;;490.03;443.30;;;;;;;22.75;73.28;99552.09;291856;33;5493;-76
2023/09/22 00:14:10;;;;;;;488.98;442.05;;;;;;;22.74;73.25;99547.75;290983;34;1171;-76
2023/09/22 00:14:21;;;;;;;487.38;440.40;;;;;;;22.74;73.25;99550.41;292061;33;871;-76
2023/09/22 00:14:31;;;;;;;483.67;436.90;;;;;;;22.75;73.22;99546.75;291257;33;4188;-76
2023/09/22 00:14:41;;;;;;;481.33;434.63;;;;;;;22.72;73.33;99544.38;290080;33;6603;-76
2023/09/22 00:14:52;;;;;;;480.08;433.52;;;;;;;22.74;73.57;99542.41;290185;34;969;-77
2023/09/22 00:15:03;;;;;;;487.92;441.20;;;;;;;22.75;73.07;99544.09;284860;34;8021;-77
2023/09/22 00:15:14;;;;;;;490.52;443.55;;;;;;;22.75;73.42;99544.09;282852;34;8058;-77
2023/09/22 00:15:24;;;;;;;490.87;443.80;;;;;;;22.75;73.54;99544.09;284448;34;977;-76
2023/09/22 00:15:34;;;;;;;483.58;436.70;;;;;;;22.75;73.11;99533.41;284857;34;9241;-76
2023/09/22 00:15:45;;;;;;;484.40;437.60;;;;;;;22.76;73.05;99540.44;280561;34;11059;-76
2023/09/22 00:15:55;;;;;;;484.97;438.30;;;;;;;22.77;73.29;99541.28;278565;34;8140;-77
2023/09/22 00:16:06;;;;;;;492.20;445.25;;;;;;;22.75;73.36;99533.41;281004;35;1965;-76
2023/09/22 00:16:16;;;;;;;494.40;447.30;;;;;;;22.72;73.65;99535.53;279304;35;7208;-76
2023/09/22 00:18:09;;;;;;;383.44;341.81;;;;;;;22.47;74.02;99528.97;2492012;27;20499;-77
2023/09/22 00:18:20;;;;;;;478.83;432.07;;;;;;;22.45;74.26;99525.59;352945;28;938;-77
2023/09/22 00:18:30;;;;;;;484.95;438.13;;;;;;;22.43;74.28;99532.88;350292;28;880;-77
2023/09/22 00:18:41;;;;;;;484.63;437.77;;;;;;;22.42;74.43;99525.88;347471;28;880;-76
2023/09/22 00:18:51;;;;;;;482.58;435.70;;;;;;;22.43;74.69;99527.56;348343;28;1756;-76
2023/09/22 00:19:05;;;;;;;491.63;444.60;;;;;;;22.43;74.49;99522.22;348663;28;1440;-77
2023/09/22 00:19:15;;;;;;;489.30;442.45;;;;;;;22.40;74.67;99522.50;348676;28;5138;-77
2023/09/22 00:19:26;;;;;;;506.50;459.23;;;;;;;22.40;74.61;99519.81;347829;28;2180;-77
2023/09/22 00:19:36;;;;;;;514.88;467.25;;;;;;;22.40;74.75;99530.50;346853;28;2983;-76
2023/09/22 00:19:47;;;;;;;520.92;473.10;;;;;;;22.40;74.57;99522.50;349098;28;1251;-76
2023/09/22 00:19:57;;;;;;;515.33;467.37;;;;;;;22.42;74.73;99518.72;350093;28;1195;-77
2023/09/22 00:20:08;;;;;;;512.70;464.95;;;;;;;22.42;74.84;99520.53;350242;28;1397;-77
2023/09/22 00:20:20;;;;;;;512.63;464.87;;;;;;;22.43;74.84;99522.22;348850;28;905;-77
2023/09/22 00:20:30;;;;;;;501.05;453.95;;;;;;;22.43;74.19;99516.88;346903;28;1478;-77
2023/09/22 00:20:41;;;;;;;494.10;447.25;;;;;;;22.44;74.46;99518.56;350105;28;2412;-77
2023/09/22 00:20:51;;;;;;;496.97;450.00;;;;;;;22.47;74.57;99515.63;350211;28;867;-77
2023/09/22 00:21:04;;;;;;;500.00;452.83;;;;;;;22.48;74.38;99519.97;349973;28;1247;-77
2023/09/22 00:21:16;;;;;;;503.27;455.92;;;;;;;22.48;74.55;99520.81;351652;28;942;-77
2023/09/22 00:21:26;;;;;;;502.55;455.15;;;;;;;22.46;74.70;99521.94;349338;28;5167;-77
2023/09/22 00:21:37;;;;;;;493.83;446.63;;;;;;;22.43;74.40;99524.88;348415;28;1286;-76
2023/09/22 00:21:47;;;;;;;494.00;446.83;;;;;;;22.41;74.84;99514.34;348882;28;1332;-76
2023/09/22 00:21:58;;;;;;;500.15;452.92;;;;;;;22.39;74.87;99521.66;350014;28;1582;-76
2023/09/22 00:22:09;;;;;;;495.87;448.77;;;;;;;22.40;74.82;99522.50;343356;28;1223;-76
2023/09/22 00:22:20;;;;;;;496.27;449.25;;;;;;;22.41;74.95;99519.69;343345;28;856;-76
2023/09/22 00:22:30;;;;;;;490.48;443.60;;;;;;;22.42;74.86;99517.88;343390;28;1048;-76
2023/09/22 00:22:42;;;;;;;497.33;450.27;;;;;;;22.43;74.65;99517.72;342176;28;869;-76
2023/09/22 00:22:52;;;;;;;498.55;451.45;;;;;;;22.40;74.72;99514.50;343106;28;1442;-76
2023/09/22 00:23:03;;;;;;;500.10;452.93;;;;;;;22.39;74.91;99510.13;340763;29;1271;-76
2023/09/22 00:23:14;;;;;;;499.50;452.23;;;;;;;22.40;74.64;99517.16;342370;28;1156;-76
2023/09/22 00:23:25;;;;;;;494.75;447.60;;;;;;;22.40;74.60;99519.81;341992;28;1326;-76
2023/09/22 00:23:35;;;;;;;489.52;442.52;;;;;;;22.40;74.72;99522.50;345218;28;958;-77
2023/09/22 00:23:46;;;;;;;485.30;438.40;;;;;;;22.39;75.15;99513.66;346159;28;1223;-77
2023/09/22 00:23:56;;;;;;;482.55;435.67;;;;;;;22.41;75.09;99518.84;347126;28;1284;-77
2023/09/22 00:24:07;;;;;;;488.60;441.50;;;;;;;22.43;74.92;99519.56;348457;28;1208;-77
2023/09/22 00:24:18;;;;;;;491.30;444.15;;;;;;;22.42;74.74;99515.19;345268;28;1208;-77
2023/09/22 00:24:28;;;;;;;491.15;444.00;;;;;;;22.42;74.88;99521.38;342081;28;1382;-77
2023/09/22 00:24:38;;;;;;;487.67;440.70;;;;;;;22.39;74.91;99521.66;338061;29;1200;-77
2023/09/22 00:24:50;;;;;;;490.65;443.50;;;;;;;22.39;74.99;99515.47;339944;29;1078;-77
2023/09/22 00:25:00;;;;;;;490.00;442.70;;;;;;;22.40;75.09;99522.50;339096;29;1357;-77
2023/09/22 00:25:12;;;;;;;481.45;434.38;;;;;;;22.40;75.06;99522.50;338139;29;1337;-76
2023/09/22 00:25:22;;;;;;;472.63;425.88;;;;;;;22.42;74.91;99520.53;336815;29;1303;-77
2023/09/22 00:25:33;;;;;;;472.20;425.58;;;;;;;22.43;74.78;99517.72;337383;29;1331;-77
2023/09/22 00:25:43;;;;;;;477.63;430.87;;;;;;;22.48;75.02;99519.97;335352;29;1244;-77
2023/09/22 00:25:54;;;;;;;477.35;430.60;;;;;;;22.47;74.74;99520.94;336860;29;890;-77
2023/09/22 00:26:04;;;;;;;483.93;436.93;;;;;;;22.49;74.78;99521.66;338633;29;1364;-77
2023/09/22 00:26:15;;;;;;;479.60;432.67;;;;;;;22.50;74.76;99523.34;339167;29;1622;-77
2023/09/22 00:26:25;;;;;;;481.90;434.83;;;;;;;22.50;75.07;99524.19;336786;29;799;-77
2023/09/22 00:26:36;;;;;;;479.75;432.63;;;;;;;22.51;74.56;99533.88;334567;29;1389;-77
2023/09/22 00:26:46;;;;;;;485.17;437.93;;;;;;;22.50;74.79;99526.84;332257;29;1469;-77
2023/09/22 00:26:56;;;;;;;490.42;443.23;;;;;;;22.53;74.46;99523.03;333892;29;1299;-77
2023/09/22 00:27:07;;;;;;;498.73;451.57;;;;;;;22.54;74.54;99524.72;333593;29;1911;-77
2023/09/22 00:27:17;;;;;;;500.90;453.67;;;;;;;22.53;74.54;99523.88;335978;29;1076;-77
2023/09/22 00:27:28;;;;;;;501.05;453.83;;;;;;;22.56;74.59;99530.75;335549;29;889;-77
2023/09/22 00:27:38;;;;;;;502.50;455.17;;;;;;;22.56;74.75;99525.41;336740;29;1518;-77
2023/09/22 00:27:49;;;;;;;514.42;466.70;;;;;;;22.57;74.60;99525.28;336490;29;1218;-77
2023/09/22 00:27:59;;;;;;;513.40;465.73;;;;;;;22.57;74.74;99527.94;335099;29;1472;-77
2023/09/22 00:28:10;;;;;;;500.23;452.80;;;;;;;22.59;74.61;99530.47;334167;29;1316;-77
2023/09/22 00:28:20;;;;;;;483.17;436.23;;;;;;;22.58;74.45;99532.28;335785;29;1804;-77
2023/09/22 00:28:30;;;;;;;484.80;437.77;;;;;;;22.57;74.48;99525.28;336263;28;1950;-77
2023/09/22 00:28:41;;;;;;;496.83;449.50;;;;;;;22.59;74.18;99527.81;333007;29;808;-77
2023/09/22 00:28:51;;;;;;;507.67;460.10;;;;;;;22.59;74.43;99527.81;336306;29;1544;-77
2023/09/22 00:29:02;;;;;;;513.73;465.93;;;;;;;22.60;74.32;99534.81;332501;29;3008;-77
2023/09/22 00:29:13;;;;;;;514.80;467.02;;;;;;;22.58;74.60;99528.78;327641;29;4682;-76
2023/09/22 00:29:23;;;;;;;510.65;462.90;;;;;;;22.57;74.64;99522.59;332164;29;2896;-76
2023/09/22 00:29:34;;;;;;;510.73;462.97;;;;;;;22.57;74.64;99530.63;330296;29;1253;-77
2023/09/22 00:29:44;;;;;;;534.90;486.58;;;;;;;22.56;74.40;99523.59;327811;29;3382;-77
2023/09/22 00:29:54;;;;;;;560.67;511.80;;;;;;;22.55;75.16;99529.06;327138;30;1263;-76
2023/09/22 00:30:05;;;;;;;584.23;534.87;;;;;;;22.56;74.43;99525.41;324374;30;1979;-76
2023/09/22 00:30:16;;;;;;;606.15;556.30;;;;;;;22.55;74.33;99524.56;322627;30;2281;-76
2023/09/22 00:30:26;;;;;;;618.90;568.85;;;;;;;22.55;74.52;99527.25;320797;30;863;-76
2023/09/22 00:30:37;;;;;;;623.47;573.27;;;;;;;22.54;74.83;99519.38;325060;30;2477;-76
2023/09/22 00:30:47;;;;;;;608.08;558.08;;;;;;;22.54;74.41;99524.72;324578;30;2333;-76
2023/09/22 00:30:57;;;;;;;608.20;558.20;;;;;;;22.53;74.48;99523.88;325460;30;1070;-77
2023/09/22 00:31:08;;;;;;;613.55;563.55;;;;;;;22.54;74.83;99519.38;323694;30;2115;-77
2023/09/22 00:31:18;;;;;;;624.77;574.53;;;;;;;22.53;74.79;99526.53;318066;30;2317;-77
2023/09/22 00:31:28;;;;;;;624.67;574.53;;;;;;;22.54;74.42;99527.38;317125;30;1698;-77
2023/09/22 00:31:39;;;;;;;610.17;560.40;;;;;;;22.54;74.77;99530.91;320820;30;1191;-77
2023/09/22 00:31:49;;;;;;;576.97;527.83;;;;;;;22.55;74.48;99527.25;319962;30;1374;-77
2023/09/22 00:32:00;;;;;;;559.83;510.93;;;;;;;22.55;74.70;99527.25;319203;30;1986;-76
2023/09/22 00:32:11;;;;;;;553.57;504.80;;;;;;;22.57;74.75;99524.44;319576;30;1186;-76
2023/09/22 00:32:22;;;;;;;565.70;516.75;;;;;;;22.57;74.60;99530.63;318909;30;2225;-76
2023/09/22 00:32:32;;;;;;;579.73;530.47;;;;;;;22.58;74.53;99526.13;317536;30;2831;-76
2023/09/22 00:32:42;;;;;;;571.47;522.47;;;;;;;22.58;74.69;99526.97;313955;31;1299;-76
2023/09/22 00:32:53;;;;;;;563.50;514.70;;;;;;;22.58;74.55;99531.47;310783;31;3452;-76
2023/09/22 00:33:03;;;;;;;551.40;502.92;;;;;;;22.58;74.45;99531.47;310287;31;3704;-76
2023/09/22 00:33:14;;;;;;;564.23;515.50;;;;;;;22.57;74.67;99529.78;309294;31;2781;-76
2023/09/22 00:33:25;;;;;;;557.65;509.20;;;;;;;22.59;74.64;99533.13;313933;31;1315;-76
2023/09/22 00:33:35;;;;;;;555.50;507.15;;;;;;;22.58;74.75;99534.13;310393;31;2875;-76
2023/09/22 00:33:45;;;;;;;547.23;499.00;;;;;;;22.57;74.45;99541.28;309603;31;2256;-76
2023/09/22 00:33:56;;;;;;;549.90;501.47;;;;;;;22.57;74.65;99529.78;310461;31;820;-77
2023/09/22 00:34:06;;;;;;;539.92;491.70;;;;;;;22.58;74.39;99531.47;310717;31;1999;-77
2023/09/22 00:34:17;;;;;;;530.43;482.33;;;;;;;22.57;74.89;99537.78;309469;31;2689;-76
2023/09/22 00:34:28;;;;;;;527.30;479.35;;;;;;;22.57;74.40;99530.63;309524;31;1212;-76
2023/09/22 00:34:38;;;;;;;533.25;485.00;;;;;;;22.58;74.44;99536.78;307521;31;3676;-76
2023/09/22 00:34:49;;;;;;;529.43;481.27;;;;;;;22.58;74.98;99532.28;307064;31;4153;-76
2023/09/22 00:34:59;;;;;;;517.63;469.70;;;;;;;22.56;74.75;99533.41;305215;32;4818;-76
2023/09/22 00:35:10;;;;;;;511.70;464.03;;;;;;;22.56;74.57;99533.41;302884;32;1478;-77
2023/09/22 00:35:21;;;;;;;511.63;464.08;;;;;;;22.55;74.79;99529.06;304887;32;5354;-77
2023/09/22 00:35:31;;;;;;;513.23;465.77;;;;;;;22.54;74.85;99527.38;302279;32;4374;-77
2023/09/22 00:35:41;;;;;;;516.53;468.97;;;;;;;22.52;75.23;99527.56;300049;32;862;-77
2023/09/22 00:35:52;;;;;;;520.63;472.67;;;;;;;22.52;74.77;99527.56;301710;32;4023;-77
2023/09/22 00:36:02;;;;;;;523.30;475.00;;;;;;;22.51;75.38;99527.69;300296;32;2954;-77
2023/09/22 00:36:14;;;;;;;515.03;466.90;;;;;;;22.50;74.89;99524.19;302050;32;920;-77
2023/09/22 00:36:25;;;;;;;513.58;465.80;;;;;;;22.51;74.88;99525.88;300045;32;1325;-77
2023/09/22 00:36:36;;;;;;;521.13;473.27;;;;;;;22.53;74.94;99523.03;292687;33;4285;-77
2023/09/22 00:36:48;;;;;;;525.75;477.67;;;;;;;22.51;75.24;99531.22;289483;33;4974;-77
2023/09/22 00:36:59;;;;;;;524.30;476.20;;;;;;;22.49;74.88;99530.50;288532;33;6102;-77
2023/09/22 00:37:09;;;;;;;520.33;472.33;;;;;;;22.46;75.28;99529.94;290041;34;1234;-77
2023/09/22 00:37:20;;;;;;;506.45;459.00;;;;;;;22.40;75.63;99530.50;288907;33;7233;-77
2023/09/22 00:37:30;;;;;;;503.05;455.75;;;;;;;22.36;75.58;99531.75;286698;34;7598;-77
2023/09/22 00:37:41;;;;;;;500.70;453.50;;;;;;;22.32;75.41;99533.00;288335;34;1292;-77
2023/09/22 00:37:51;;;;;;;500.23;452.98;;;;;;;22.30;75.95;99533.16;289862;33;6366;-77
2023/09/22 00:38:02;;;;;;;502.80;455.43;;;;;;;22.29;75.98;99530.63;284851;34;6146;-77
2023/09/22 00:38:12;;;;;;;506.17;458.77;;;;;;;22.29;75.86;99531.47;283111;34;2611;-77
2023/09/22 00:38:23;;;;;;;508.10;460.50;;;;;;;22.31;75.94;99534.00;280658;34;4779;-77
2023/09/22 00:38:33;;;;;;;508.70;460.90;;;;;;;22.32;75.63;99533.84;280932;34;4858;-76
2023/09/22 00:38:44;;;;;;;504.53;456.50;;;;;;;22.34;75.55;99536.38;279228;35;6624;-76
2023/09/22 00:38:54;;;;;;;508.10;460.25;;;;;;;22.36;75.54;99534.41;278762;35;3789;-76
2023/09/22 00:39:05;;;;;;;501.83;454.13;;;;;;;22.36;75.70;99537.09;273821;35;7957;-76
2023/09/22 00:39:15;;;;;;;497.05;449.65;;;;;;;22.38;75.67;99540.47;271460;35;9049;-77
2023/09/22 00:39:26;;;;;;;488.97;441.77;;;;;;;22.38;75.90;99548.47;273877;36;1417;-76
2023/09/22 00:39:36;;;;;;;491.42;444.20;;;;;;;22.40;75.32;99541.16;271024;36;10152;-76
2023/09/22 00:41:20;;;;;;;507.70;460.37;;;;;;;22.42;75.76;99541.88;2488647;27;20974;-77
2023/09/22 00:41:31;;;;;;;486.57;439.30;;;;;;;22.42;75.53;99536.53;352957;28;1065;-77
2023/09/22 00:41:42;;;;;;;486.67;439.48;;;;;;;22.44;75.55;99529.22;350355;28;800;-77
2023/09/22 00:41:55;;;;;;;480.92;434.05;;;;;;;22.45;75.63;99533.59;348634;28;1246;-77
2023/09/22 00:42:08;;;;;;;477.13;430.42;;;;;;;22.45;75.34;99533.59;349957;28;4860;-76
2023/09/22 00:42:19;;;;;;;480.27;433.58;;;;;;;22.46;75.30;99532.59;351446;28;5109;-77
2023/09/22 00:42:29;;;;;;;479.67;432.90;;;;;;;22.46;75.58;99529.94;349954;28;1262;-77
2023/09/22 00:42:40;;;;;;;478.85;432.08;;;;;;;22.47;75.66;99534.28;351482;28;887;-77
2023/09/22 00:43:09;;;;;;;481.53;434.63;;;;;;;22.45;75.32;99536.25;350173;28;1349;-77
2023/09/22 00:43:19;;;;;;;484.00;437.15;;;;;;;22.44;75.26;99534.56;350184;28;914;-77
2023/09/22 00:43:29;;;;;;;489.00;441.97;;;;;;;22.44;75.48;99534.56;348874;28;1759;-77
2023/09/22 00:43:40;;;;;;;497.75;450.65;;;;;;;22.42;75.63;99531.19;347425;28;1094;-76
2023/09/22 00:43:50;;;;;;;499.20;452.03;;;;;;;22.42;75.36;99536.53;348904;28;873;-76
2023/09/22 00:44:01;;;;;;;489.23;442.25;;;;;;;22.42;75.58;99533.88;351537;28;948;-76
2023/09/22 00:44:11;;;;;;;486.17;439.27;;;;;;;22.42;75.49;99531.19;348755;28;1596;-77
2023/09/22 00:44:22;;;;;;;485.55;438.85;;;;;;;22.43;75.60;99532.88;348974;28;986;-77
2023/09/22 00:44:32;;;;;;;488.10;441.43;;;;;;;22.44;75.52;99534.56;350248;28;1190;-77
2023/09/22 00:44:42;;;;;;;477.77;431.23;;;;;;;22.45;75.60;99531.75;351524;28;915;-76
2023/09/22 00:44:53;;;;;;;472.50;426.00;;;;;;;22.44;75.50;99531.91;351661;28;913;-77
2023/09/22 00:45:03;;;;;;;471.63;425.07;;;;;;;22.45;75.63;99534.44;349095;28;1343;-77
2023/09/22 00:45:16;;;;;;;485.15;438.25;;;;;;;22.44;75.72;99529.22;346473;28;1170;-77
2023/09/22 00:45:27;;;;;;;487.35;440.35;;;;;;;22.46;75.43;99533.44;347406;28;5419;-77
2023/09/22 00:45:42;;;;;;;490.00;443.03;;;;;;;22.46;75.31;99532.59;346021;28;1251;-77
2023/09/22 00:45:52;;;;;;;507.98;460.67;;;;;;;22.46;75.40;99530.78;347135;28;5380;-77
2023/09/22 00:46:03;;;;;;;507.20;459.90;;;;;;;22.45;75.61;99530.91;344660;28;1314;-77
2023/09/22 00:46:13;;;;;;;490.60;443.70;;;;;;;22.46;75.63;99532.59;343909;28;1346;-77
2023/09/22 00:46:25;;;;;;;469.30;422.83;;;;;;;22.45;75.60;99534.44;346062;28;1347;-77
2023/09/22 00:46:35;;;;;;;458.83;412.70;;;;;;;22.44;75.53;99529.22;346071;28;1225;-77
2023/09/22 00:46:46;;;;;;;459.93;413.83;;;;;;;22.44;75.67;99523.91;345947;28;875;-77
2023/09/22 00:46:57;;;;;;;463.15;416.88;;;;;;;22.43;75.89;99531.06;346246;28;1340;-77
2023/09/22 00:47:14;;;;;;;464.23;417.65;;;;;;;22.43;75.52;99528.38;343899;28;1370;-77
2023/09/22 00:47:25;;;;;;;462.77;416.30;;;;;;;22.43;75.75;99527.56;343026;28;5582;-77
2023/09/22 00:47:35;;;;;;;468.02;421.85;;;;;;;22.43;75.90;99527.56;342245;28;2619;-77
2023/09/22 00:47:46;;;;;;;464.07;417.87;;;;;;;22.44;75.72;99529.22;340540;28;4686;-76
2023/09/22 00:47:56;;;;;;;464.88;418.55;;;;;;;22.44;75.45;99518.56;341791;28;5052;-77
2023/09/22 00:48:08;;;;;;;470.27;423.60;;;;;;;22.44;75.53;99524.75;340575;29;1337;-77
2023/09/22 00:48:28;;;;;;;474.48;427.70;;;;;;;22.39;75.42;99518.16;340634;29;1369;-77
2023/09/22 00:48:39;;;;;;;454.00;408.02;;;;;;;22.38;76.02;99516.47;339235;29;5563;-77
2023/09/22 00:48:50;;;;;;;453.33;407.45;;;;;;;22.37;75.72;99528.09;339886;29;1140;-76
2023/09/22 00:49:00;;;;;;;457.33;411.43;;;;;;;22.38;75.52;99521.78;341205;28;848;-77
2023/09/22 00:49:10;;;;;;;460.50;414.50;;;;;;;22.38;75.63;99519.13;340674;28;1415;-77
2023/09/22 00:49:21;;;;;;;455.10;409.23;;;;;;;22.38;75.72;99519.13;340838;29;854;-77
2023/09/22 00:49:31;;;;;;;456.37;410.27;;;;;;;22.36;75.79;99523.75;343650;28;1419;-77
2023/09/22 00:49:42;;;;;;;454.65;408.58;;;;;;;22.35;75.83;99524.72;343750;28;1737;-77
2023/09/22 00:49:54;;;;;;;456.35;410.17;;;;;;;22.34;76.14;99512.38;344739;28;1109;-76
2023/09/22 00:50:06;;;;;;;453.35;407.27;;;;;;;22.34;76.05;99517.72;341701;28;1650;-76
2023/09/22 00:50:16;;;;;;;447.10;401.36;;;;;;;22.33;75.88;99511.53;341487;28;1922;-77
2023/09/22 00:50:27;;;;;;;444.73;399.20;;;;;;;22.35;76.23;99514.91;340889;28;1194;-77
2023/09/22 00:50:37;;;;;;;441.57;396.17;;;;;;;22.38;75.77;99524.47;338194;29;970;-77
2023/09/22 00:50:48;;;;;;;442.65;397.08;;;;;;;22.37;75.78;99517.44;336385;29;1433;-77
2023/09/22 00:51:01;;;;;;;447.10;401.38;;;;;;;22.37;75.76;99517.44;337723;29;1145;-76
2023/09/22 00:51:12;;;;;;;454.85;409.00;;;;;;;22.39;75.81;99515.47;341905;28;1478;-76
2023/09/22 00:51:22;;;;;;;456.83;411.10;;;;;;;22.42;75.67;99517.88;340677;29;1272;-77
2023/09/22 00:51:32;;;;;;;451.40;405.85;;;;;;;22.41;75.96;99519.69;335260;29;3095;-77
2023/09/22 00:51:44;;;;;;;451.90;406.13;;;;;;;22.41;75.96;99513.50;332596;29;1472;-77
2023/09/22 00:51:55;;;;;;;451.45;405.42;;;;;;;22.42;75.65;99517.88;330349;29;2219;-77
2023/09/22 00:52:05;;;;;;;451.08;404.80;;;;;;;22.42;75.81;99515.19;334157;29;1247;-77
2023/09/22 00:52:18;;;;;;;450.90;404.70;;;;;;;22.42;75.88;99512.53;332511;29;2152;-76
2023/09/22 00:52:29;;;;;;;444.25;398.52;;;;;;;22.42;75.75;99520.53;333134;29;5051;-76
2023/09/22 00:52:40;;;;;;;444.30;398.60;;;;;;;22.41;75.53;99519.69;332853;29;1295;-76
2023/09/22 00:52:52;;;;;;;441.27;395.73;;;;;;;22.41;75.67;99521.50;332964;29;871;-77
2023/09/22 00:53:04;;;;;;;445.85;400.02;;;;;;;22.40;75.90;99517.16;333564;29;1323;-77
2023/09/22 00:53:14;;;;;;;448.00;401.85;;;;;;;22.39;75.55;99513.66;334376;29;2260;-77
2023/09/22 00:53:25;;;;;;;454.30;408.10;;;;;;;22.40;75.75;99511.81;332435;29;2065;-77